createdAt,value
2023-01-29T00:03:16.479Z,5.07
2023-01-29T00:08:18.103Z,5.30
2023-01-29T00:13:19.839Z,5.40
2023-01-29T00:18:21.658Z,5.53
2023-01-29T00:23:23.808Z,5.33
2023-01-29T00:28:25.373Z,5.00
2023-01-29T00:33:29.151Z,5.30
2023-01-29T00:38:30.803Z,5.10
2023-01-29T00:43:50.729Z,5.27
2023-01-29T00:48:52.278Z,5.20
2023-01-29T00:53:58.236Z,5.17
2023-01-29T00:59:00.047Z,5.97
2023-01-29T01:04:01.684Z,5.77
2023-01-29T01:09:22.273Z,5.83
2023-01-29T01:14:23.848Z,6.10
2023-01-29T01:19:25.439Z,5.97
2023-01-29T01:24:27.140Z,5.87
2023-01-29T01:29:28.860Z,6.40
2023-01-29T01:34:30.565Z,6.67
2023-01-29T01:39:32.153Z,7.17
2023-01-29T01:44:57.061Z,7.33
2023-01-29T01:50:03.930Z,6.50
2023-01-29T01:55:06.906Z,7.00
2023-01-29T02:00:12.924Z,6.97
2023-01-29T02:05:35.729Z,7.50
2023-01-29T02:10:42.482Z,7.90
2023-01-29T02:15:50.182Z,7.97
2023-01-29T02:21:07.507Z,7.53
2023-01-29T02:26:14.857Z,8.30
2023-01-29T02:31:30.156Z,7.80
2023-01-29T02:36:56.668Z,7.80
2023-01-29T02:42:02.389Z,7.67
2023-01-29T02:47:13.929Z,8.00
2023-01-29T02:52:18.674Z,9.37
2023-01-29T02:57:23.919Z,8.50
2023-01-29T03:03:00.644Z,9.37
2023-01-29T03:08:06.936Z,9.43
2023-01-29T03:13:22.143Z,9.10
2023-01-29T03:18:27.707Z,8.67
2023-01-29T03:23:54.285Z,8.73
2023-01-29T03:29:14.669Z,8.17
2023-01-29T03:34:28.488Z,8.20
2023-01-29T03:39:30.498Z,8.20
2023-01-29T03:44:37.592Z,8.20
2023-01-29T03:49:43.691Z,8.40
2023-01-29T03:55:06.962Z,7.83
2023-01-29T04:00:11.375Z,7.33
2023-01-29T04:05:30.629Z,7.20
2023-01-29T04:11:00.198Z,6.83
2023-01-29T04:16:04.656Z,7.47
2023-01-29T04:21:31.824Z,7.40
2023-01-29T04:27:07.465Z,7.27
2023-01-29T04:32:16.155Z,7.63
2023-01-29T04:37:33.578Z,7.10
2023-01-29T04:42:47.952Z,7.63
2023-01-29T04:48:25.143Z,7.93
2023-01-29T04:53:29.535Z,8.30
2023-01-29T04:58:36.088Z,7.90
2023-01-29T05:03:37.985Z,7.30
2023-01-29T05:08:40.283Z,7.83
2023-01-29T05:13:43.144Z,7.80
2023-01-29T05:18:45.016Z,7.70
2023-01-29T05:23:59.268Z,8.03
2023-01-29T05:29:00.840Z,7.73
2023-01-29T05:34:02.401Z,7.43
2023-01-29T05:39:04.248Z,7.30
2023-01-29T05:44:05.988Z,7.70
2023-01-29T05:49:07.606Z,7.47
2023-01-29T05:54:12.394Z,8.20
2023-01-29T05:59:15.817Z,8.17
2023-01-29T06:04:17.409Z,8.03
2023-01-29T06:09:19.010Z,9.03
2023-01-29T06:14:20.616Z,8.07
2023-01-29T06:19:22.257Z,7.33
2023-01-29T06:24:23.907Z,7.77
2023-01-29T06:29:25.482Z,7.93
2023-01-29T06:34:27.030Z,7.50
2023-01-29T06:39:28.591Z,8.20
2023-01-29T06:44:30.146Z,7.90
2023-01-29T06:49:31.946Z,8.40
2023-01-29T06:54:33.494Z,8.03
2023-01-29T06:59:35.055Z,8.30
2023-01-29T07:04:37.793Z,8.20
2023-01-29T07:09:43.179Z,7.43
2023-01-29T07:14:44.717Z,7.57
2023-01-29T07:19:46.286Z,7.93
2023-01-29T07:24:48.422Z,7.97
2023-01-29T07:29:50.054Z,8.23
2023-01-29T07:34:51.597Z,7.67
2023-01-29T07:39:53.255Z,7.23
2023-01-29T07:44:54.840Z,7.30
2023-01-29T07:49:56.453Z,7.67
2023-01-29T07:54:58.141Z,7.27
2023-01-29T07:59:59.722Z,7.67
2023-01-29T08:05:01.380Z,7.70
2023-01-29T08:10:03.117Z,7.93
2023-01-29T08:15:05.010Z,7.80
2023-01-29T08:20:07.332Z,7.90
2023-01-29T08:25:09.259Z,7.43
2023-01-29T08:30:11.571Z,7.37
2023-01-29T08:35:13.280Z,7.73
2023-01-29T08:40:14.998Z,7.37
2023-01-29T08:45:17.398Z,8.07
2023-01-29T08:50:19.613Z,7.87
2023-01-29T08:55:21.364Z,7.83
2023-01-29T09:00:23.031Z,7.70
2023-01-29T09:05:24.601Z,7.80
2023-01-29T09:10:26.745Z,7.63
2023-01-29T09:15:28.439Z,7.13
2023-01-29T09:20:30.065Z,7.77
2023-01-29T09:25:31.655Z,7.67
2023-01-29T09:30:34.610Z,9.30
2023-01-29T09:35:36.344Z,8.20
2023-01-29T09:40:50.479Z,7.97
2023-01-29T09:46:24.167Z,7.60
2023-01-29T09:51:30.585Z,8.10
2023-01-29T09:56:32.224Z,7.90
2023-01-29T10:01:42.575Z,8.63
2023-01-29T10:06:47.255Z,8.70
2023-01-29T10:12:05.353Z,8.53
2023-01-29T10:17:31.767Z,8.30
2023-01-29T10:23:11.200Z,7.80
2023-01-29T10:28:43.408Z,9.00
2023-01-29T10:34:02.101Z,7.80
2023-01-29T10:39:04.485Z,8.27
2023-01-29T10:44:14.584Z,8.70
2023-01-29T10:49:41.246Z,8.60
2023-01-29T10:54:58.024Z,8.30
2023-01-29T11:00:07.810Z,8.07
2023-01-29T11:05:32.045Z,8.27
2023-01-29T11:10:58.539Z,8.80
2023-01-29T11:16:00.147Z,8.23
2023-01-29T11:21:03.801Z,8.43
2023-01-29T11:26:07.063Z,8.23
2023-01-29T11:31:38.056Z,8.47
2023-01-29T11:36:39.981Z,7.87
2023-01-29T11:42:01.523Z,7.97
2023-01-29T11:47:15.905Z,8.53
2023-01-29T11:52:19.607Z,8.30
2023-01-29T11:57:49.111Z,7.93
2023-01-29T12:02:59.380Z,8.33
2023-01-29T12:08:02.297Z,8.23
2023-01-29T12:13:10.707Z,8.20
2023-01-29T12:18:27.210Z,8.17
2023-01-29T12:23:50.282Z,9.13
2023-01-29T12:29:16.496Z,9.10
2023-01-29T12:34:38.279Z,7.73
2023-01-29T12:39:39.935Z,8.67
2023-01-29T12:44:47.266Z,8.50
2023-01-29T12:49:52.612Z,8.60
2023-01-29T12:55:01.691Z,8.27
2023-01-29T13:00:06.796Z,7.43
2023-01-29T13:05:17.153Z,7.70
2023-01-29T13:10:23.633Z,8.00
2023-01-29T13:15:45.504Z,7.60
2023-01-29T13:20:48.828Z,7.03
2023-01-29T13:25:52.258Z,7.40
2023-01-29T13:31:28.168Z,7.67
2023-01-29T13:36:31.504Z,7.80
2023-01-29T13:41:39.899Z,7.90
2023-01-29T13:46:41.832Z,7.80
2023-01-29T13:51:43.491Z,7.83
2023-01-29T13:57:01.744Z,7.50
2023-01-29T14:02:04.493Z,7.40
2023-01-29T14:07:38.805Z,8.00
2023-01-29T14:12:42.029Z,8.73
2023-01-29T14:18:14.841Z,8.93
2023-01-29T14:23:41.225Z,8.60
2023-01-29T14:28:42.891Z,7.90
2023-01-29T14:33:45.334Z,8.17
2023-01-29T14:38:49.682Z,8.07
2023-01-29T14:43:51.952Z,7.73
2023-01-29T14:48:53.624Z,8.50
2023-01-29T14:54:16.704Z,7.73
2023-01-29T14:59:29.066Z,8.23
2023-01-29T15:04:40.334Z,8.10
2023-01-29T15:10:20.902Z,8.27
2023-01-29T15:15:29.621Z,7.60
2023-01-29T15:20:34.158Z,8.03
2023-01-29T15:25:37.345Z,7.60
2023-01-29T15:30:39.285Z,8.07
2023-01-29T15:35:42.002Z,7.70
2023-01-29T15:40:57.779Z,7.00
2023-01-29T15:46:01.893Z,6.90
2023-01-29T15:51:10.351Z,6.53
2023-01-29T15:56:12.993Z,6.43
2023-01-29T16:01:15.296Z,7.27
2023-01-29T16:06:16.981Z,6.17
2023-01-29T16:11:19.593Z,6.63
2023-01-29T16:16:25.085Z,6.13
2023-01-29T16:21:33.678Z,6.27
2023-01-29T16:26:37.494Z,6.17
2023-01-29T16:31:40.239Z,6.20
2023-01-29T16:36:46.623Z,5.83
2023-01-29T16:42:20.204Z,5.87
2023-01-29T16:47:44.987Z,6.57
2023-01-29T16:53:00.806Z,6.43
2023-01-29T16:58:13.359Z,6.50
2023-01-29T17:03:15.486Z,5.70
2023-01-29T17:08:30.865Z,5.90
2023-01-29T17:13:36.809Z,5.80
2023-01-29T17:18:38.928Z,5.90
2023-01-29T17:23:40.494Z,5.80
2023-01-29T17:28:42.414Z,5.73
2023-01-29T17:33:44.252Z,6.40
2023-01-29T17:38:46.537Z,6.67
2023-01-29T17:43:48.152Z,6.50
2023-01-29T17:48:49.765Z,6.10
2023-01-29T17:53:51.343Z,6.30
2023-01-29T17:58:53.171Z,6.50
2023-01-29T18:03:54.867Z,6.07
2023-01-29T18:08:56.873Z,6.07
2023-01-29T18:13:58.753Z,6.03
2023-01-29T18:19:13.426Z,6.80
2023-01-29T18:24:15.306Z,6.40
2023-01-29T18:29:16.966Z,5.93
2023-01-29T18:34:18.579Z,6.33
2023-01-29T18:39:20.218Z,6.60
2023-01-29T18:44:21.821Z,6.37
2023-01-29T18:49:23.447Z,6.30
2023-01-29T18:54:25.087Z,6.17
2023-01-29T18:59:26.708Z,6.17
2023-01-29T19:04:28.300Z,6.03
2023-01-29T19:09:29.884Z,6.57
2023-01-29T19:14:31.519Z,6.63
2023-01-29T19:19:33.132Z,6.47
2023-01-29T19:24:38.800Z,5.73
2023-01-29T19:29:40.377Z,6.17
2023-01-29T19:34:41.933Z,5.90
2023-01-29T19:39:43.479Z,6.50
2023-01-29T19:44:45.427Z,6.00
2023-01-29T19:49:47.055Z,6.13
2023-01-29T19:54:48.810Z,6.03
2023-01-29T19:59:50.358Z,6.30
2023-01-29T20:04:52.251Z,6.43
2023-01-29T20:09:53.791Z,5.60
2023-01-29T20:14:55.374Z,5.60
2023-01-29T20:19:56.940Z,6.13
2023-01-29T20:24:58.715Z,6.60
2023-01-29T20:30:00.329Z,6.03
2023-01-29T20:35:02.130Z,6.47
2023-01-29T20:40:04.046Z,5.77
2023-01-29T20:45:06.297Z,6.97
2023-01-29T20:50:10.257Z,6.50
2023-01-29T20:55:12.664Z,6.47
2023-01-29T21:00:15.541Z,6.37
2023-01-29T21:05:17.202Z,5.93
2023-01-29T21:10:19.112Z,6.70
2023-01-29T21:15:21.042Z,6.70
2023-01-29T21:20:22.745Z,6.60
2023-01-29T21:25:24.617Z,7.17
2023-01-29T21:30:27.004Z,7.20
2023-01-29T21:35:28.613Z,6.83
2023-01-29T21:40:30.529Z,7.70
2023-01-29T21:45:34.204Z,7.33
2023-01-29T21:50:37.299Z,7.93
2023-01-29T21:55:38.947Z,7.47
2023-01-29T22:00:40.575Z,6.97
2023-01-29T22:05:42.287Z,8.00
2023-01-29T22:10:43.888Z,8.07
2023-01-29T22:15:45.462Z,8.17
2023-01-29T22:20:55.877Z,8.30
2023-01-29T22:26:05.085Z,7.33
2023-01-29T22:31:06.717Z,7.50
2023-01-29T22:36:08.733Z,7.60
2023-01-29T22:41:10.702Z,7.83
2023-01-29T22:46:12.499Z,7.80
2023-01-29T22:51:14.108Z,7.00
2023-01-29T22:56:16.269Z,7.20
2023-01-29T23:01:22.396Z,7.70
2023-01-29T23:06:24.065Z,7.17
2023-01-29T23:11:25.649Z,7.40
2023-01-29T23:16:28.490Z,7.60
2023-01-29T23:21:30.206Z,7.37
2023-01-29T23:26:50.426Z,6.83
2023-01-29T23:31:52.037Z,7.27
2023-01-29T23:36:53.631Z,7.27
2023-01-29T23:41:55.224Z,6.80
2023-01-29T23:46:57.454Z,7.30
2023-01-29T23:51:59.087Z,7.00
2023-01-29T23:57:00.693Z,6.63
